Aeroporto :
LOGIN :

Iscrizione | Disclaimer

   EN    FR    IT 

 










Sommario :    VFR   VFR Marginale   IFR   IFR Intensivo   IFR Molto Intensivo
Visibilità : 
Base nubi : 
>= 8 km
>= 3000ft
5 / 8 km
1000 / 3000 ft
1500m / 5 km
500 / 1000 ft
800 / 1500m
200 / 500 ft
< 800m
< 200 ft
Simboli :   Temporali  Nebbia  Neve Forte  Precipitazioni Forti  Vento > 20 kt
SIGMETs :   Varie  Temporali  Ghiacco  Turbolenza  Onda orograficha  Ceneri Vulcaniche







- Altitudine del aeroporto : 202 ft
- Codice IATA : LGW
- Carte del aeroporto


EGKK - London Gatwick

ULTIMO METAR :
  • 161550Z 32007KT 4000 -DZ BKN017 OVC024 18/16 Q1022

METARs OBSOLETI :
  • 161520Z 33007KT 300V360 9999 8000N -RA BKN021 19/15 Q1021
  • 161450Z 32005KT 290V360 9999 FEW021 BKN033 20/15 Q1021
  • 161420Z 32007KT 270V360 9999 FEW023 BKN032 20/15 Q1021
  • 161350Z 32007KT 280V350 9999 FEW021 SCT032 20/15 Q1021
  • 161320Z 30007KT 270V330 9999 FEW022 SCT035 20/15 Q1021

TAF AMD TAF EGKK
Valido dal 16 a 15 ore il 17 a 18 ore UTC


161500Z 1615/1718 31006KT 9999 BKN020
BECMG 1615/1618 BKN012
PROB40
TEMPO 1615/1621 3000 DZ BKN006
BECMG 1621/1624 FEW045
PROB40
TEMPO 1622/1707 5000 BR
BECMG 1709/1712 01010KT
Nessun NOTAM noto per questo aeroporto.



MetMap, La meteo Aeronautica in un colpo d'occhio ! - Copyright ORBIFLY Dicembre 2007 - Disclaimer

ORBIFLY MET'MAP TEAM :

Programmazione e sviluppo : Alexandra Zaïnal
Concezione e sviluppo : Baudouin d'Aumeries
Co-Programmazione e sviluppo : Marc-Olivier Méhu
Supporto tecnico e logistico : Manuel Goepfert
Aiuto per la traduzione : Arnaldo La Scala

Contatto : metmap@orbifly.com




FONTI E CREDITI :

   NOAA